Impacts TAF Board INFO
FOR SITUATIONAL AWARENESS. NOT TO BE USED FOR FLIGHT PLANNING PURPOSES.
IDs:

KIAH - Houston/Bush Intl, TX, US

Issued at 1734 UTC 18 Nov 2017
Updated at 1748 UTC 18 Nov 2017
Potential Impact None Slight Moderate High
Time1653Z 18/18Z 18/19Z 18/20Z 18/21Z 18/22Z 18/23Z 19/00Z 19/01Z 19/02Z 19/03Z 19/04Z 19/05Z 19/06Z>>
Type OBS PRVL
  [TEMP]  
PRVL
  [TEMP]  
PRVL
  [TEMP]  
PRVL PRVL PRVL PRVL PRVL PRVL PRVL PRVL PRVL PRVL
VIS 10 >6 >6 >6 >6 >6 >6 >6 >6 >6 >6 >6 >6 >6
CIG 21 21
  [35]  
21
  [35]  
21
  [35]  
50 50 -- -- -- -- -- -- -- --
Cover OVC OVC
  [BKN]  
OVC
  [BKN]  
OVC
  [BKN]  
BKN BKN FEW FEW FEW FEW FEW FEW FEW FEW
FltCat MVFR MVFR
  [VFR]  
MVFR
  [VFR]  
MVFR
  [VFR]  
VFR VFR VFR VFR VFR VFR VFR VFR VFR VFR
WX -- --
  [--]  
--
  [--]  
--
  [--]  
-- -- -- -- -- -- -- -- -- --
WDir 250 250
[250]
250
[250]
250
[250]
310 310 350 350 350 350 350 350 350 350
WSpd 11 10
  [10]  
10
  [10]  
10
  [10]  
15 15 12 12 12 12 12 12 12 12
WGst 15 20
  [20]  
20
  [20]  
20
  [20]  
25 25 22 22 22 22 22 22 22 22

Raw TAF
KIAH 181734Z 1818/1924 25010G20KT P6SM BKN021 OVC035
  TEMPO 1818/1821 BKN035
  FM182100 31015G25KT P6SM BKN050
  FM182300 35012G22KT P6SM FEW250
  FM190800 36011KT P6SM SKC
  FM191700 02015KT P6SM SKC


Raw METAR
KIAH 181653Z 25011G15KT 10SM BKN021 OVC032 26/21 A2988 RMK AO2 SLP116 T02610211
KIAH 181622Z 25010G20KT 10SM BKN020 OVC029 26/21 A2987 RMK AO2 T02610211
KIAH 181553Z 22011G20KT 10SM SCT019 OVC029 25/21 A2986 RMK AO2 SLP110 T02500211
KIAH 181453Z 22010G16KT 10SM SCT018 OVC028 24/21 A2986 RMK AO2 SLP112 T02390211 51010

METAR Board
Radar Display
Forecast Discussion

FOR SITUATIONAL AWARENESS. NOT TO BE USED FOR FLIGHT PLANNING PURPOSES.